sensor_id;sensor_type;location;lat;lon;timestamp;temperature;humidity
62998;DHT22;55949;52.590;7.330;2023-04-03T00:00:01;3.20;99.90
62998;DHT22;55949;52.590;7.330;2023-04-03T00:01:02;3.20;99.90
62998;DHT22;55949;52.590;7.330;2023-04-03T00:02:03;3.10;99.90
62998;DHT22;55949;52.590;7.330;2023-04-03T00:03:04;3.10;99.90
62998;DHT22;55949;52.590;7.330;2023-04-03T00:04:05;3.10;99.90
62998;DHT22;55949;52.590;7.330;2023-04-03T00:05:06;3.10;99.90
62998;DHT22;55949;52.590;7.330;2023-04-03T00:06:07;3.10;99.90
62998;DHT22;55949;52.590;7.330;2023-04-03T00:07:09;3.10;99.90
62998;DHT22;55949;52.590;7.330;2023-04-03T00:08:09;3.10;99.90
62998;DHT22;55949;52.590;7.330;2023-04-03T00:09:10;3.00;99.90
62998;DHT22;55949;52.590;7.330;2023-04-03T00:10:11;3.10;99.90
62998;DHT22;55949;52.590;7.330;2023-04-03T00:11:12;3.00;99.90
62998;DHT22;55949;52.590;7.330;2023-04-03T00:12:13;3.00;99.90
62998;DHT22;55949;52.590;7.330;2023-04-03T00:13:14;3.00;99.90
62998;DHT22;55949;52.590;7.330;2023-04-03T00:14:15;3.10;99.90
62998;DHT22;55949;52.590;7.330;2023-04-03T00:15:16;3.10;99.90
62998;DHT22;55949;52.590;7.330;2023-04-03T00:16:20;3.00;99.90
62998;DHT22;55949;52.590;7.330;2023-04-03T00:17:20;3.00;99.90
62998;DHT22;55949;52.590;7.330;2023-04-03T00:18:21;3.00;99.90
62998;DHT22;55949;52.590;7.330;2023-04-03T00:19:22;3.00;99.90
62998;DHT22;55949;52.590;7.330;2023-04-03T00:20:23;3.00;99.90
62998;DHT22;55949;52.590;7.330;2023-04-03T00:21:24;3.00;99.90
62998;DHT22;55949;52.590;7.330;2023-04-03T00:22:25;2.90;99.90
62998;DHT22;55949;52.590;7.330;2023-04-03T00:23:27;3.00;99.90
62998;DHT22;55949;52.590;7.330;2023-04-03T00:24:27;3.00;99.90
62998;DHT22;55949;52.590;7.330;2023-04-03T00:25:28;2.90;99.90
62998;DHT22;55949;52.590;7.330;2023-04-03T00:26:30;2.90;99.90
62998;DHT22;55949;52.590;7.330;2023-04-03T00:27:30;3.00;99.90
62998;DHT22;55949;52.590;7.330;2023-04-03T00:28:31;3.00;99.90
62998;DHT22;55949;52.590;7.330;2023-04-03T00:29:32;2.90;99.90
62998;DHT22;55949;52.590;7.330;2023-04-03T00:30:33;2.90;99.90
62998;DHT22;55949;52.590;7.330;2023-04-03T00:31:33;2.90;99.90
62998;DHT22;55949;52.590;7.330;2023-04-03T00:32:34;2.90;99.90
62998;DHT22;55949;52.590;7.330;2023-04-03T00:33:35;2.90;99.90
62998;DHT22;55949;52.590;7.330;2023-04-03T00:34:36;2.90;99.90
62998;DHT22;55949;52.590;7.330;2023-04-03T00:35:37;2.90;99.90
62998;DHT22;55949;52.590;7.330;2023-04-03T00:36:38;2.90;99.90
62998;DHT22;55949;52.590;7.330;2023-04-03T00:37:39;2.90;99.90
62998;DHT22;55949;52.590;7.330;2023-04-03T00:38:40;2.90;99.90
62998;DHT22;55949;52.590;7.330;2023-04-03T00:39:40;2.80;99.90
62998;DHT22;55949;52.590;7.330;2023-04-03T00:40:44;2.80;99.90
62998;DHT22;55949;52.590;7.330;2023-04-03T00:41:46;2.90;99.90
62998;DHT22;55949;52.590;7.330;2023-04-03T00:42:50;2.90;99.90
62998;DHT22;55949;52.590;7.330;2023-04-03T00:43:51;2.80;99.90
62998;DHT22;55949;52.590;7.330;2023-04-03T00:45:55;2.80;99.90
62998;DHT22;55949;52.590;7.330;2023-04-03T00:46:56;2.80;99.90
62998;DHT22;55949;52.590;7.330;2023-04-03T00:47:57;2.80;99.90
62998;DHT22;55949;52.590;7.330;2023-04-03T00:49:00;2.80;99.90
62998;DHT22;55949;52.590;7.330;2023-04-03T00:50:01;2.80;99.90
62998;DHT22;55949;52.590;7.330;2023-04-03T00:51:03;2.80;99.90
62998;DHT22;55949;52.590;7.330;2023-04-03T00:52:09;2.80;99.90
62998;DHT22;55949;52.590;7.330;2023-04-03T00:53:14;2.80;99.90
62998;DHT22;55949;52.590;7.330;2023-04-03T00:54:17;2.80;99.90
62998;DHT22;55949;52.590;7.330;2023-04-03T00:55:18;2.80;99.90
62998;DHT22;55949;52.590;7.330;2023-04-03T00:56:21;2.70;99.90
62998;DHT22;55949;52.590;7.330;2023-04-03T00:57:24;2.70;99.90
62998;DHT22;55949;52.590;7.330;2023-04-03T00:58:37;2.70;99.90
62998;DHT22;55949;52.590;7.330;2023-04-03T00:59:43;2.70;99.90
62998;DHT22;55949;52.590;7.330;2023-04-03T01:00:50;2.70;99.90
62998;DHT22;55949;52.590;7.330;2023-04-03T01:01:56;2.70;99.90
62998;DHT22;55949;52.590;7.330;2023-04-03T01:02:57;2.60;99.90
62998;DHT22;55949;52.590;7.330;2023-04-03T01:04:02;2.60;99.90
62998;DHT22;55949;52.590;7.330;2023-04-03T01:05:04;2.60;99.90
62998;DHT22;55949;52.590;7.330;2023-04-03T01:06:05;2.60;99.90
62998;DHT22;55949;52.590;7.330;2023-04-03T01:07:24;2.60;99.90
62998;DHT22;55949;52.590;7.330;2023-04-03T01:08:26;2.60;99.90
62998;DHT22;55949;52.590;7.330;2023-04-03T01:09:28;2.60;99.90
62998;DHT22;55949;52.590;7.330;2023-04-03T01:10:29;2.60;99.90
62998;DHT22;55949;52.590;7.330;2023-04-03T01:11:30;2.60;99.90
62998;DHT22;55949;52.590;7.330;2023-04-03T01:12:37;2.60;99.90
62998;DHT22;55949;52.590;7.330;2023-04-03T01:13:37;2.60;99.90
62998;DHT22;55949;52.590;7.330;2023-04-03T01:14:39;2.60;99.90
62998;DHT22;55949;52.590;7.330;2023-04-03T01:15:39;2.70;99.90
62998;DHT22;55949;52.590;7.330;2023-04-03T01:16:40;2.70;99.90
62998;DHT22;55949;52.590;7.330;2023-04-03T01:17:44;2.70;99.90
62998;DHT22;55949;52.590;7.330;2023-04-03T01:18:45;2.60;99.90
62998;DHT22;55949;52.590;7.330;2023-04-03T01:19:57;2.60;99.90
62998;DHT22;55949;52.590;7.330;2023-04-03T01:21:09;2.60;99.90
62998;DHT22;55949;52.590;7.330;2023-04-03T01:22:19;2.50;99.90
62998;DHT22;55949;52.590;7.330;2023-04-03T01:24:49;2.40;99.90
62998;DHT22;55949;52.590;7.330;2023-04-03T01:25:54;2.40;99.90
62998;DHT22;55949;52.590;7.330;2023-04-03T01:26:55;2.30;99.90
62998;DHT22;55949;52.590;7.330;2023-04-03T01:27:56;2.30;99.90
62998;DHT22;55949;52.590;7.330;2023-04-03T01:28:59;2.30;99.90
62998;DHT22;55949;52.590;7.330;2023-04-03T01:30:00;2.30;99.90
62998;DHT22;55949;52.590;7.330;2023-04-03T01:32:07;2.30;99.90
62998;DHT22;55949;52.590;7.330;2023-04-03T01:33:09;2.30;99.90
62998;DHT22;55949;52.590;7.330;2023-04-03T01:34:09;2.30;99.90
62998;DHT22;55949;52.590;7.330;2023-04-03T01:35:11;2.30;99.90
62998;DHT22;55949;52.590;7.330;2023-04-03T01:36:17;2.30;99.90
62998;DHT22;55949;52.590;7.330;2023-04-03T01:37:21;2.30;99.90
62998;DHT22;55949;52.590;7.330;2023-04-03T01:38:22;2.30;99.90
62998;DHT22;55949;52.590;7.330;2023-04-03T01:39:23;2.30;99.90
62998;DHT22;55949;52.590;7.330;2023-04-03T01:40:24;2.30;99.90
62998;DHT22;55949;52.590;7.330;2023-04-03T01:41:25;2.30;99.90
62998;DHT22;55949;52.590;7.330;2023-04-03T01:42:26;2.40;99.90
62998;DHT22;55949;52.590;7.330;2023-04-03T01:43:27;2.40;99.90
62998;DHT22;55949;52.590;7.330;2023-04-03T01:44:27;2.40;99.90
62998;DHT22;55949;52.590;7.330;2023-04-03T01:45:28;2.40;99.90
62998;DHT22;55949;52.590;7.330;2023-04-03T01:46:29;2.40;99.90
62998;DHT22;55949;52.590;7.330;2023-04-03T01:47:30;2.50;99.90
62998;DHT22;55949;52.590;7.330;2023-04-03T01:48:31;2.50;99.90
62998;DHT22;55949;52.590;7.330;2023-04-03T01:49:31;2.50;99.90
62998;DHT22;55949;52.590;7.330;2023-04-03T01:50:32;2.50;99.90
62998;DHT22;55949;52.590;7.330;2023-04-03T01:51:33;2.50;99.90
62998;DHT22;55949;52.590;7.330;2023-04-03T01:52:34;2.50;99.90
62998;DHT22;55949;52.590;7.330;2023-04-03T01:53:34;2.50;99.90
62998;DHT22;55949;52.590;7.330;2023-04-03T01:54:35;2.50;99.90
62998;DHT22;55949;52.590;7.330;2023-04-03T01:55:36;2.50;99.90
62998;DHT22;55949;52.590;7.330;2023-04-03T01:56:37;2.50;99.90
62998;DHT22;55949;52.590;7.330;2023-04-03T01:57:39;2.50;99.90
62998;DHT22;55949;52.590;7.330;2023-04-03T01:58:40;2.40;99.90
62998;DHT22;55949;52.590;7.330;2023-04-03T01:59:40;2.40;99.90
62998;DHT22;55949;52.590;7.330;2023-04-03T02:00:41;2.40;99.90
62998;DHT22;55949;52.590;7.330;2023-04-03T02:01:42;2.30;99.90
62998;DHT22;55949;52.590;7.330;2023-04-03T02:02:45;2.30;99.90
62998;DHT22;55949;52.590;7.330;2023-04-03T02:03:46;2.30;99.90
62998;DHT22;55949;52.590;7.330;2023-04-03T02:04:46;2.20;99.90
62998;DHT22;55949;52.590;7.330;2023-04-03T02:05:47;2.20;99.90
62998;DHT22;55949;52.590;7.330;2023-04-03T02:06:48;2.10;99.90
62998;DHT22;55949;52.590;7.330;2023-04-03T02:07:49;2.10;99.90
62998;DHT22;55949;52.590;7.330;2023-04-03T02:08:50;2.10;99.90
62998;DHT22;55949;52.590;7.330;2023-04-03T02:09:51;2.10;99.90
62998;DHT22;55949;52.590;7.330;2023-04-03T02:10:51;2.10;99.90
62998;DHT22;55949;52.590;7.330;2023-04-03T02:11:53;2.20;99.90
62998;DHT22;55949;52.590;7.330;2023-04-03T02:12:53;2.10;99.90
62998;DHT22;55949;52.590;7.330;2023-04-03T02:13:54;2.10;99.90
62998;DHT22;55949;52.590;7.330;2023-04-03T02:14:55;2.20;99.90
62998;DHT22;55949;52.590;7.330;2023-04-03T02:15:56;2.20;99.90
62998;DHT22;55949;52.590;7.330;2023-04-03T02:16:57;2.20;99.90
62998;DHT22;55949;52.590;7.330;2023-04-03T02:17:57;2.20;99.90
62998;DHT22;55949;52.590;7.330;2023-04-03T02:18:58;2.10;99.90
62998;DHT22;55949;52.590;7.330;2023-04-03T02:19:59;2.20;99.90
62998;DHT22;55949;52.590;7.330;2023-04-03T02:21:00;2.20;99.90
62998;DHT22;55949;52.590;7.330;2023-04-03T02:22:01;2.20;99.90
62998;DHT22;55949;52.590;7.330;2023-04-03T02:23:02;2.20;99.90
62998;DHT22;55949;52.590;7.330;2023-04-03T02:24:03;2.20;99.90
62998;DHT22;55949;52.590;7.330;2023-04-03T02:25:04;2.20;99.90
62998;DHT22;55949;52.590;7.330;2023-04-03T02:26:11;2.20;99.90
62998;DHT22;55949;52.590;7.330;2023-04-03T02:27:12;2.20;99.90
62998;DHT22;55949;52.590;7.330;2023-04-03T02:28:12;2.20;99.90
62998;DHT22;55949;52.590;7.330;2023-04-03T02:29:13;2.20;99.90
62998;DHT22;55949;52.590;7.330;2023-04-03T02:30:14;2.20;99.90
62998;DHT22;55949;52.590;7.330;2023-04-03T02:31:15;2.20;99.90
62998;DHT22;55949;52.590;7.330;2023-04-03T02:32:16;2.20;99.90
62998;DHT22;55949;52.590;7.330;2023-04-03T02:33:17;2.20;99.90
62998;DHT22;55949;52.590;7.330;2023-04-03T02:34:18;2.20;99.90
62998;DHT22;55949;52.590;7.330;2023-04-03T02:35:18;2.20;99.90
62998;DHT22;55949;52.590;7.330;2023-04-03T02:36:19;2.20;99.90
62998;DHT22;55949;52.590;7.330;2023-04-03T02:37:20;2.20;99.90
62998;DHT22;55949;52.590;7.330;2023-04-03T02:38:22;2.20;99.90
62998;DHT22;55949;52.590;7.330;2023-04-03T02:39:23;2.20;99.90
62998;DHT22;55949;52.590;7.330;2023-04-03T02:40:24;2.10;99.90
62998;DHT22;55949;52.590;7.330;2023-04-03T02:41:24;2.00;99.90
62998;DHT22;55949;52.590;7.330;2023-04-03T02:42:28;2.00;99.90
62998;DHT22;55949;52.590;7.330;2023-04-03T02:43:29;2.00;99.90
62998;DHT22;55949;52.590;7.330;2023-04-03T02:44:29;2.00;99.90
62998;DHT22;55949;52.590;7.330;2023-04-03T02:45:30;1.90;99.90
62998;DHT22;55949;52.590;7.330;2023-04-03T02:46:31;1.90;99.90
62998;DHT22;55949;52.590;7.330;2023-04-03T02:47:32;1.90;99.90
62998;DHT22;55949;52.590;7.330;2023-04-03T02:48:33;1.90;99.90
62998;DHT22;55949;52.590;7.330;2023-04-03T02:49:34;1.90;99.90
62998;DHT22;55949;52.590;7.330;2023-04-03T02:50:35;1.90;99.90
62998;DHT22;55949;52.590;7.330;2023-04-03T02:51:35;1.90;99.90
62998;DHT22;55949;52.590;7.330;2023-04-03T02:52:36;1.80;99.90
62998;DHT22;55949;52.590;7.330;2023-04-03T02:53:39;1.80;99.90
62998;DHT22;55949;52.590;7.330;2023-04-03T02:54:40;1.80;99.90
62998;DHT22;55949;52.590;7.330;2023-04-03T02:55:41;1.80;99.90
62998;DHT22;55949;52.590;7.330;2023-04-03T02:56:41;1.80;99.90
62998;DHT22;55949;52.590;7.330;2023-04-03T02:57:42;1.80;99.90
62998;DHT22;55949;52.590;7.330;2023-04-03T02:58:44;1.70;99.90
62998;DHT22;55949;52.590;7.330;2023-04-03T02:59:44;1.70;99.90
62998;DHT22;55949;52.590;7.330;2023-04-03T03:00:45;1.70;99.90
62998;DHT22;55949;52.590;7.330;2023-04-03T03:01:46;1.70;99.90
62998;DHT22;55949;52.590;7.330;2023-04-03T03:02:48;1.70;99.90
62998;DHT22;55949;52.590;7.330;2023-04-03T03:03:50;1.60;99.90
62998;DHT22;55949;52.590;7.330;2023-04-03T03:04:51;1.50;99.90
62998;DHT22;55949;52.590;7.330;2023-04-03T03:06:04;1.50;99.90
62998;DHT22;55949;52.590;7.330;2023-04-03T03:07:05;1.50;99.90
62998;DHT22;55949;52.590;7.330;2023-04-03T03:08:06;1.40;99.90
62998;DHT22;55949;52.590;7.330;2023-04-03T03:09:07;1.40;99.90
62998;DHT22;55949;52.590;7.330;2023-04-03T03:10:08;1.40;99.90
62998;DHT22;55949;52.590;7.330;2023-04-03T03:11:09;1.40;99.90
62998;DHT22;55949;52.590;7.330;2023-04-03T03:12:10;1.40;99.90
62998;DHT22;55949;52.590;7.330;2023-04-03T03:13:11;1.40;99.90
62998;DHT22;55949;52.590;7.330;2023-04-03T03:14:12;1.40;99.90
62998;DHT22;55949;52.590;7.330;2023-04-03T03:15:12;1.40;99.90
62998;DHT22;55949;52.590;7.330;2023-04-03T03:16:13;1.40;99.90
62998;DHT22;55949;52.590;7.330;2023-04-03T03:17:14;1.30;99.90
62998;DHT22;55949;52.590;7.330;2023-04-03T03:18:15;1.30;99.90
62998;DHT22;55949;52.590;7.330;2023-04-03T03:19:16;1.20;99.90
62998;DHT22;55949;52.590;7.330;2023-04-03T03:20:16;1.20;99.90
62998;DHT22;55949;52.590;7.330;2023-04-03T03:21:17;1.20;99.90
62998;DHT22;55949;52.590;7.330;2023-04-03T03:22:20;1.20;99.90
62998;DHT22;55949;52.590;7.330;2023-04-03T03:23:24;1.10;99.90
62998;DHT22;55949;52.590;7.330;2023-04-03T03:24:26;1.20;99.90
62998;DHT22;55949;52.590;7.330;2023-04-03T03:25:27;1.20;99.90
62998;DHT22;55949;52.590;7.330;2023-04-03T03:26:28;1.10;99.90
62998;DHT22;55949;52.590;7.330;2023-04-03T03:27:29;1.10;99.90
62998;DHT22;55949;52.590;7.330;2023-04-03T03:28:30;1.10;99.90
62998;DHT22;55949;52.590;7.330;2023-04-03T03:29:31;1.00;99.90
62998;DHT22;55949;52.590;7.330;2023-04-03T03:30:31;1.00;99.90
62998;DHT22;55949;52.590;7.330;2023-04-03T03:31:32;1.00;99.90
62998;DHT22;55949;52.590;7.330;2023-04-03T03:32:33;1.00;99.90
62998;DHT22;55949;52.590;7.330;2023-04-03T03:33:34;1.00;99.90
62998;DHT22;55949;52.590;7.330;2023-04-03T03:34:35;1.00;99.90
62998;DHT22;55949;52.590;7.330;2023-04-03T03:35:35;1.00;99.90
62998;DHT22;55949;52.590;7.330;2023-04-03T03:36:36;1.00;99.90
62998;DHT22;55949;52.590;7.330;2023-04-03T03:37:37;1.00;99.90
62998;DHT22;55949;52.590;7.330;2023-04-03T03:38:37;1.00;99.90
62998;DHT22;55949;52.590;7.330;2023-04-03T03:39:38;1.00;99.90
62998;DHT22;55949;52.590;7.330;2023-04-03T03:40:39;1.00;99.90
62998;DHT22;55949;52.590;7.330;2023-04-03T03:41:40;1.00;99.90
62998;DHT22;55949;52.590;7.330;2023-04-03T03:42:41;1.00;99.90
62998;DHT22;55949;52.590;7.330;2023-04-03T03:43:41;1.00;99.90
62998;DHT22;55949;52.590;7.330;2023-04-03T03:44:42;1.00;99.90
62998;DHT22;55949;52.590;7.330;2023-04-03T03:45:43;1.00;99.90
62998;DHT22;55949;52.590;7.330;2023-04-03T03:46:45;1.00;99.90
62998;DHT22;55949;52.590;7.330;2023-04-03T03:47:46;1.00;99.90
62998;DHT22;55949;52.590;7.330;2023-04-03T03:48:46;1.00;99.90
62998;DHT22;55949;52.590;7.330;2023-04-03T03:49:47;1.00;99.90
62998;DHT22;55949;52.590;7.330;2023-04-03T03:50:49;1.00;99.90
62998;DHT22;55949;52.590;7.330;2023-04-03T03:51:50;1.00;99.90
62998;DHT22;55949;52.590;7.330;2023-04-03T03:52:52;1.00;99.90
62998;DHT22;55949;52.590;7.330;2023-04-03T03:53:53;1.00;99.90
62998;DHT22;55949;52.590;7.330;2023-04-03T03:54:54;1.00;99.90
62998;DHT22;55949;52.590;7.330;2023-04-03T03:55:54;1.00;99.90
62998;DHT22;55949;52.590;7.330;2023-04-03T03:56:55;1.00;99.90
62998;DHT22;55949;52.590;7.330;2023-04-03T03:57:56;1.00;99.90
62998;DHT22;55949;52.590;7.330;2023-04-03T03:58:57;1.00;99.90
62998;DHT22;55949;52.590;7.330;2023-04-03T03:59:57;0.90;99.90
62998;DHT22;55949;52.590;7.330;2023-04-03T04:01:06;1.00;99.90
62998;DHT22;55949;52.590;7.330;2023-04-03T04:02:08;0.90;99.90
62998;DHT22;55949;52.590;7.330;2023-04-03T04:03:09;0.90;99.90
62998;DHT22;55949;52.590;7.330;2023-04-03T04:04:09;0.90;99.90
62998;DHT22;55949;52.590;7.330;2023-04-03T04:05:10;0.90;99.90
62998;DHT22;55949;52.590;7.330;2023-04-03T04:06:11;1.00;99.90
62998;DHT22;55949;52.590;7.330;2023-04-03T04:07:11;0.90;99.90
62998;DHT22;55949;52.590;7.330;2023-04-03T04:08:12;0.90;99.90
62998;DHT22;55949;52.590;7.330;2023-04-03T04:09:13;0.90;99.90
62998;DHT22;55949;52.590;7.330;2023-04-03T04:10:13;0.90;99.90
62998;DHT22;55949;52.590;7.330;2023-04-03T04:11:14;0.90;99.90
62998;DHT22;55949;52.590;7.330;2023-04-03T04:12:15;0.90;99.90
62998;DHT22;55949;52.590;7.330;2023-04-03T04:13:16;0.90;99.90
62998;DHT22;55949;52.590;7.330;2023-04-03T04:14:17;1.00;99.90
62998;DHT22;55949;52.590;7.330;2023-04-03T04:15:18;1.00;99.90
62998;DHT22;55949;52.590;7.330;2023-04-03T04:16:19;1.00;99.90
62998;DHT22;55949;52.590;7.330;2023-04-03T04:17:19;0.90;99.90
62998;DHT22;55949;52.590;7.330;2023-04-03T04:18:20;0.90;99.90
62998;DHT22;55949;52.590;7.330;2023-04-03T04:19:21;1.00;99.90
62998;DHT22;55949;52.590;7.330;2023-04-03T04:20:22;0.90;99.90
62998;DHT22;55949;52.590;7.330;2023-04-03T04:21:23;0.90;99.90
62998;DHT22;55949;52.590;7.330;2023-04-03T04:22:24;0.90;99.90
62998;DHT22;55949;52.590;7.330;2023-04-03T04:23:24;0.90;99.90
62998;DHT22;55949;52.590;7.330;2023-04-03T04:24:25;0.90;99.90
62998;DHT22;55949;52.590;7.330;2023-04-03T04:25:26;0.90;99.90
62998;DHT22;55949;52.590;7.330;2023-04-03T04:26:29;0.80;99.90
62998;DHT22;55949;52.590;7.330;2023-04-03T04:27:30;0.80;99.90
62998;DHT22;55949;52.590;7.330;2023-04-03T04:28:31;0.80;99.90
62998;DHT22;55949;52.590;7.330;2023-04-03T04:29:31;0.80;99.90
62998;DHT22;55949;52.590;7.330;2023-04-03T04:30:36;0.80;99.90
62998;DHT22;55949;52.590;7.330;2023-04-03T04:31:36;0.80;99.90
62998;DHT22;55949;52.590;7.330;2023-04-03T04:32:37;0.80;99.90
62998;DHT22;55949;52.590;7.330;2023-04-03T04:33:38;0.80;99.90
62998;DHT22;55949;52.590;7.330;2023-04-03T04:34:38;0.80;99.90
62998;DHT22;55949;52.590;7.330;2023-04-03T04:35:42;0.80;99.90
62998;DHT22;55949;52.590;7.330;2023-04-03T04:36:42;0.80;99.90
62998;DHT22;55949;52.590;7.330;2023-04-03T04:37:43;0.80;99.90
62998;DHT22;55949;52.590;7.330;2023-04-03T04:38:45;0.80;99.90
62998;DHT22;55949;52.590;7.330;2023-04-03T04:39:47;0.80;99.90
62998;DHT22;55949;52.590;7.330;2023-04-03T04:40:48;0.80;99.90
62998;DHT22;55949;52.590;7.330;2023-04-03T04:41:49;0.80;99.90
62998;DHT22;55949;52.590;7.330;2023-04-03T04:42:50;0.80;99.90
62998;DHT22;55949;52.590;7.330;2023-04-03T04:43:51;0.80;99.90
62998;DHT22;55949;52.590;7.330;2023-04-03T04:44:52;0.80;99.90
62998;DHT22;55949;52.590;7.330;2023-04-03T04:46:03;0.80;99.90
62998;DHT22;55949;52.590;7.330;2023-04-03T04:47:03;0.80;99.90
62998;DHT22;55949;52.590;7.330;2023-04-03T04:48:04;0.80;99.90
62998;DHT22;55949;52.590;7.330;2023-04-03T04:49:05;0.80;99.90
62998;DHT22;55949;52.590;7.330;2023-04-03T04:50:07;0.80;99.90
62998;DHT22;55949;52.590;7.330;2023-04-03T04:51:08;0.80;99.90
62998;DHT22;55949;52.590;7.330;2023-04-03T04:52:09;0.80;99.90
62998;DHT22;55949;52.590;7.330;2023-04-03T04:53:09;0.70;99.90
62998;DHT22;55949;52.590;7.330;2023-04-03T04:54:10;0.70;99.90
62998;DHT22;55949;52.590;7.330;2023-04-03T04:55:11;0.70;99.90
62998;DHT22;55949;52.590;7.330;2023-04-03T04:56:11;0.70;99.90
62998;DHT22;55949;52.590;7.330;2023-04-03T04:57:12;0.70;99.90
62998;DHT22;55949;52.590;7.330;2023-04-03T04:58:13;0.70;99.90
62998;DHT22;55949;52.590;7.330;2023-04-03T04:59:14;0.70;99.90
62998;DHT22;55949;52.590;7.330;2023-04-03T05:00:15;0.70;99.90
62998;DHT22;55949;52.590;7.330;2023-04-03T05:01:16;0.70;99.90
62998;DHT22;55949;52.590;7.330;2023-04-03T05:02:17;0.70;99.90
62998;DHT22;55949;52.590;7.330;2023-04-03T05:03:18;0.70;99.90
62998;DHT22;55949;52.590;7.330;2023-04-03T05:04:19;0.60;99.90
62998;DHT22;55949;52.590;7.330;2023-04-03T05:05:20;0.60;99.90
62998;DHT22;55949;52.590;7.330;2023-04-03T05:06:20;0.60;99.90
62998;DHT22;55949;52.590;7.330;2023-04-03T05:07:22;0.60;99.90
62998;DHT22;55949;52.590;7.330;2023-04-03T05:08:23;0.50;99.90
62998;DHT22;55949;52.590;7.330;2023-04-03T05:09:24;0.50;99.90
62998;DHT22;55949;52.590;7.330;2023-04-03T05:10:25;0.50;99.90
62998;DHT22;55949;52.590;7.330;2023-04-03T05:11:27;0.50;99.90
62998;DHT22;55949;52.590;7.330;2023-04-03T05:12:28;0.50;99.90
62998;DHT22;55949;52.590;7.330;2023-04-03T05:13:29;0.50;99.90
62998;DHT22;55949;52.590;7.330;2023-04-03T05:14:32;0.60;99.90
62998;DHT22;55949;52.590;7.330;2023-04-03T05:15:33;0.60;99.90
62998;DHT22;55949;52.590;7.330;2023-04-03T05:16:34;0.60;99.90
62998;DHT22;55949;52.590;7.330;2023-04-03T05:17:35;0.60;99.90
62998;DHT22;55949;52.590;7.330;2023-04-03T05:18:36;0.60;99.90
62998;DHT22;55949;52.590;7.330;2023-04-03T05:19:36;0.60;99.90
62998;DHT22;55949;52.590;7.330;2023-04-03T05:20:37;0.60;99.90
62998;DHT22;55949;52.590;7.330;2023-04-03T05:21:38;0.60;99.90
62998;DHT22;55949;52.590;7.330;2023-04-03T05:22:39;0.60;99.90
62998;DHT22;55949;52.590;7.330;2023-04-03T05:23:41;0.60;99.90
62998;DHT22;55949;52.590;7.330;2023-04-03T05:24:42;0.60;99.90
62998;DHT22;55949;52.590;7.330;2023-04-03T05:25:42;0.60;99.90
62998;DHT22;55949;52.590;7.330;2023-04-03T05:26:45;0.60;99.90
62998;DHT22;55949;52.590;7.330;2023-04-03T05:27:46;0.60;99.90
62998;DHT22;55949;52.590;7.330;2023-04-03T05:28:46;0.60;99.90
62998;DHT22;55949;52.590;7.330;2023-04-03T05:29:47;0.60;99.90
62998;DHT22;55949;52.590;7.330;2023-04-03T05:30:55;0.70;99.90
62998;DHT22;55949;52.590;7.330;2023-04-03T05:31:56;0.70;99.90
62998;DHT22;55949;52.590;7.330;2023-04-03T05:32:57;0.70;99.90
62998;DHT22;55949;52.590;7.330;2023-04-03T05:33:58;0.70;99.90
62998;DHT22;55949;52.590;7.330;2023-04-03T05:35:00;0.70;99.90
62998;DHT22;55949;52.590;7.330;2023-04-03T05:36:05;0.70;99.90
62998;DHT22;55949;52.590;7.330;2023-04-03T05:37:05;0.80;99.90
62998;DHT22;55949;52.590;7.330;2023-04-03T05:38:07;0.80;99.90
62998;DHT22;55949;52.590;7.330;2023-04-03T05:39:08;0.80;99.90
62998;DHT22;55949;52.590;7.330;2023-04-03T05:40:09;0.80;99.90
62998;DHT22;55949;52.590;7.330;2023-04-03T05:41:11;0.90;99.90
62998;DHT22;55949;52.590;7.330;2023-04-03T05:42:12;0.90;99.90
62998;DHT22;55949;52.590;7.330;2023-04-03T05:43:14;0.90;99.90
62998;DHT22;55949;52.590;7.330;2023-04-03T05:44:16;0.90;99.90
62998;DHT22;55949;52.590;7.330;2023-04-03T05:45:17;1.00;99.90
62998;DHT22;55949;52.590;7.330;2023-04-03T05:46:19;1.10;99.90
62998;DHT22;55949;52.590;7.330;2023-04-03T05:47:20;1.10;99.90
62998;DHT22;55949;52.590;7.330;2023-04-03T05:48:21;1.10;99.90
62998;DHT22;55949;52.590;7.330;2023-04-03T05:49:23;1.10;99.90
62998;DHT22;55949;52.590;7.330;2023-04-03T05:50:24;1.10;99.90
62998;DHT22;55949;52.590;7.330;2023-04-03T05:51:29;1.10;99.90
62998;DHT22;55949;52.590;7.330;2023-04-03T05:52:35;1.00;99.90
62998;DHT22;55949;52.590;7.330;2023-04-03T05:53:36;1.00;99.90
62998;DHT22;55949;52.590;7.330;2023-04-03T05:54:38;1.00;99.90
62998;DHT22;55949;52.590;7.330;2023-04-03T05:55:39;1.00;99.90
62998;DHT22;55949;52.590;7.330;2023-04-03T05:56:39;1.10;99.90
62998;DHT22;55949;52.590;7.330;2023-04-03T05:57:40;1.10;99.90
62998;DHT22;55949;52.590;7.330;2023-04-03T05:58:41;1.10;99.90
62998;DHT22;55949;52.590;7.330;2023-04-03T05:59:42;1.10;99.90
62998;DHT22;55949;52.590;7.330;2023-04-03T06:00:43;1.20;99.90
62998;DHT22;55949;52.590;7.330;2023-04-03T06:01:44;1.20;99.90
62998;DHT22;55949;52.590;7.330;2023-04-03T06:02:45;1.20;99.90
62998;DHT22;55949;52.590;7.330;2023-04-03T06:03:45;1.20;99.90
62998;DHT22;55949;52.590;7.330;2023-04-03T06:04:46;1.30;99.90
62998;DHT22;55949;52.590;7.330;2023-04-03T06:05:48;1.30;99.90
62998;DHT22;55949;52.590;7.330;2023-04-03T06:06:54;1.30;99.90
62998;DHT22;55949;52.590;7.330;2023-04-03T06:07:55;1.30;99.90
62998;DHT22;55949;52.590;7.330;2023-04-03T06:08:57;1.30;99.90
62998;DHT22;55949;52.590;7.330;2023-04-03T06:09:58;1.30;99.90
62998;DHT22;55949;52.590;7.330;2023-04-03T06:10:59;1.30;99.90
62998;DHT22;55949;52.590;7.330;2023-04-03T06:12:00;1.30;99.90
62998;DHT22;55949;52.590;7.330;2023-04-03T06:13:02;1.40;99.90
62998;DHT22;55949;52.590;7.330;2023-04-03T06:14:03;1.40;99.90
62998;DHT22;55949;52.590;7.330;2023-04-03T06:15:04;1.50;99.90
62998;DHT22;55949;52.590;7.330;2023-04-03T06:16:05;1.50;99.90
62998;DHT22;55949;52.590;7.330;2023-04-03T06:17:06;1.50;99.90
62998;DHT22;55949;52.590;7.330;2023-04-03T06:18:07;1.60;99.90
62998;DHT22;55949;52.590;7.330;2023-04-03T06:19:09;1.60;99.90
62998;DHT22;55949;52.590;7.330;2023-04-03T06:20:11;1.60;99.90
62998;DHT22;55949;52.590;7.330;2023-04-03T06:21:12;1.60;99.90
62998;DHT22;55949;52.590;7.330;2023-04-03T06:22:13;1.70;99.90
62998;DHT22;55949;52.590;7.330;2023-04-03T06:23:14;1.70;99.90
62998;DHT22;55949;52.590;7.330;2023-04-03T06:24:16;1.70;99.90
62998;DHT22;55949;52.590;7.330;2023-04-03T06:25:17;1.70;99.90
62998;DHT22;55949;52.590;7.330;2023-04-03T06:26:19;1.70;99.90
62998;DHT22;55949;52.590;7.330;2023-04-03T06:27:21;1.80;99.90
62998;DHT22;55949;52.590;7.330;2023-04-03T06:28:22;1.80;99.90
62998;DHT22;55949;52.590;7.330;2023-04-03T06:29:23;1.80;99.90
62998;DHT22;55949;52.590;7.330;2023-04-03T06:30:23;1.80;99.90
62998;DHT22;55949;52.590;7.330;2023-04-03T06:31:24;1.80;99.90
62998;DHT22;55949;52.590;7.330;2023-04-03T06:32:25;1.90;99.90
62998;DHT22;55949;52.590;7.330;2023-04-03T06:33:26;1.90;99.90
62998;DHT22;55949;52.590;7.330;2023-04-03T06:34:27;1.90;99.90
62998;DHT22;55949;52.590;7.330;2023-04-03T06:35:28;2.00;99.90
62998;DHT22;55949;52.590;7.330;2023-04-03T06:36:30;1.90;99.90
62998;DHT22;55949;52.590;7.330;2023-04-03T06:37:31;1.90;99.90